Atlanta, Texas
Current Conditions -  °F | °C
As of 2:53 AM on Thursday 27 Nov 2014 (Local Time) from KTXK Reporting Station
Clear Clear  
Wind Chill: 36°   Ceiling: Unl
Heat Index: 42°   Visibility: 10mi
Dew Point: 27°   Wind: 10mph
Humidity: 55%   Direction: 310°NW
Pressure: 30.42"   Gusts: NA
Location:  33.12°N, 94.17°W
Report Text: KTXK 270853Z AUTO 31009KT 10SM CLR 06/M03 A3042 RMK AO2 SLP301 T00561028 53028
Loading
Personal Weather Stations






























Interactive Weather Map New forecast layout! Learn more

10-Day Weather Forecast

Advertisements
Track Severe Weather on mobile